createdAt,value
2017-07-31T00:00:41.180Z,22.8
2017-07-31T00:01:41.515Z,22.75
2017-07-31T00:02:41.490Z,22.69
2017-07-31T00:03:41.204Z,22.8
2017-07-31T00:04:41.225Z,22.73
2017-07-31T00:05:41.509Z,22.76
2017-07-31T00:06:41.515Z,22.69
2017-07-31T00:07:41.516Z,22.7
2017-07-31T00:08:41.531Z,22.65
2017-07-31T00:09:41.567Z,22.66
2017-07-31T00:10:41.222Z,22.55
2017-07-31T00:11:41.230Z,22.62
2017-07-31T00:12:41.524Z,22.55
2017-07-31T00:13:41.532Z,22.55
2017-07-31T00:14:41.544Z,22.57
2017-07-31T00:15:41.243Z,22.43
2017-07-31T00:16:41.542Z,22.29
2017-07-31T00:17:41.586Z,22.33
2017-07-31T00:18:41.567Z,22.33
2017-07-31T00:19:41.556Z,22.3
2017-07-31T00:20:41.578Z,22.26
2017-07-31T00:21:41.588Z,22.25
2017-07-31T00:22:41.579Z,22.3
2017-07-31T00:23:40.994Z,22.32
2017-07-31T00:24:41.282Z,22.32
2017-07-31T00:25:41.575Z,22.33
2017-07-31T00:26:41.278Z,22.32
2017-07-31T00:27:41.298Z,22.32
2017-07-31T00:28:41.587Z,22.32
2017-07-31T00:29:44.317Z,22.47
2017-07-31T00:30:41.595Z,22.43
2017-07-31T00:31:41.596Z,22.48
2017-07-31T00:32:41.600Z,22.5
2017-07-31T00:33:41.320Z,22.53
2017-07-31T00:34:41.613Z,22.53
2017-07-31T00:35:41.618Z,22.39
2017-07-31T00:36:41.618Z,22.45
2017-07-31T00:37:41.626Z,22.36
2017-07-31T00:38:41.643Z,22.32
2017-07-31T00:39:41.657Z,22.26
2017-07-31T00:40:41.659Z,22.28
2017-07-31T00:41:41.657Z,22.41
2017-07-31T00:42:41.642Z,22.35
2017-07-31T00:43:41.649Z,22.3
2017-07-31T00:44:44.168Z,22.35
2017-07-31T00:45:41.366Z,22.29
2017-07-31T00:46:41.370Z,22.29
2017-07-31T00:47:41.671Z,22.28
2017-07-31T00:48:41.070Z,22.36
2017-07-31T00:49:41.396Z,22.39
2017-07-31T00:50:41.699Z,22.45
2017-07-31T00:51:41.376Z,22.45
2017-07-31T00:52:41.388Z,22.43
2017-07-31T00:53:41.399Z,22.5
2017-07-31T00:54:41.691Z,22.43
2017-07-31T00:55:41.389Z,22.44
2017-07-31T00:56:41.696Z,22.5
2017-07-31T00:57:41.395Z,22.47
2017-07-31T00:58:41.704Z,22.47
2017-07-31T00:59:41.704Z,22.44
2017-07-31T01:00:41.721Z,22.48
2017-07-31T01:01:41.718Z,22.45
2017-07-31T01:02:41.729Z,22.47
2017-07-31T01:03:41.729Z,22.43
2017-07-31T01:04:41.727Z,22.35
2017-07-31T01:05:41.430Z,22.35
2017-07-31T01:06:41.752Z,22.29
2017-07-31T01:07:41.738Z,22.33
2017-07-31T01:08:41.754Z,22.3
2017-07-31T01:09:41.774Z,22.25
2017-07-31T01:10:41.783Z,22.28
2017-07-31T01:11:41.759Z,22.23
2017-07-31T01:12:41.454Z,22.18
2017-07-31T01:13:41.763Z,22.25
2017-07-31T01:14:41.463Z,22.15
2017-07-31T01:15:41.768Z,22.11
2017-07-31T01:16:41.483Z,22.15
2017-07-31T01:17:41.786Z,22.04
2017-07-31T01:18:41.785Z,22
2017-07-31T01:19:41.484Z,22
2017-07-31T01:20:41.787Z,22.02
2017-07-31T01:21:41.493Z,21.92
2017-07-31T01:22:41.792Z,21.95
2017-07-31T01:23:41.800Z,21.93
2017-07-31T01:24:41.794Z,21.93
2017-07-31T01:25:41.803Z,22
2017-07-31T01:26:41.804Z,21.96
2017-07-31T01:27:41.816Z,21.98
2017-07-31T01:28:41.841Z,22.04
2017-07-31T01:29:41.521Z,21.92
2017-07-31T01:30:41.520Z,22
2017-07-31T01:31:41.823Z,21.99
2017-07-31T01:32:41.829Z,21.91
2017-07-31T01:33:41.827Z,21.92
2017-07-31T01:34:41.832Z,21.85
2017-07-31T01:35:41.850Z,22
2017-07-31T01:36:41.859Z,21.83
2017-07-31T01:37:41.852Z,21.91
2017-07-31T01:38:41.848Z,21.91
2017-07-31T01:39:41.851Z,21.88
2017-07-31T01:40:41.856Z,21.96
2017-07-31T01:41:41.865Z,21.89
2017-07-31T01:42:41.569Z,21.92
2017-07-31T01:43:41.879Z,21.96
2017-07-31T01:44:41.873Z,21.96
2017-07-31T01:45:44.839Z,21.91
2017-07-31T01:46:41.584Z,21.98
2017-07-31T01:47:41.602Z,21.93
2017-07-31T01:48:41.590Z,21.99
2017-07-31T01:49:41.895Z,21.98
2017-07-31T01:50:41.892Z,21.96
2017-07-31T01:51:41.889Z,21.92
2017-07-31T01:52:41.620Z,21.92
2017-07-31T01:53:41.609Z,21.89
2017-07-31T01:54:41.909Z,21.82
2017-07-31T01:55:41.910Z,21.85
2017-07-31T01:56:41.617Z,21.75
2017-07-31T01:57:41.918Z,21.72
2017-07-31T01:58:41.619Z,21.69
2017-07-31T01:59:41.623Z,21.62
2017-07-31T02:00:42.124Z,21.77
2017-07-31T02:01:41.950Z,21.75
2017-07-31T02:02:41.641Z,21.75
2017-07-31T02:03:41.931Z,21.66
2017-07-31T02:04:41.934Z,21.72
2017-07-31T02:05:41.967Z,21.82
2017-07-31T02:06:41.957Z,21.76
2017-07-31T02:07:41.990Z,21.77
2017-07-31T02:08:41.988Z,21.75
2017-07-31T02:09:41.965Z,21.72
2017-07-31T02:10:41.966Z,21.77
2017-07-31T02:11:41.960Z,21.79
2017-07-31T02:12:41.979Z,21.72
2017-07-31T02:13:41.678Z,21.75
2017-07-31T02:14:41.673Z,21.75
2017-07-31T02:15:45.694Z,21.76
2017-07-31T02:16:41.680Z,21.75
2017-07-31T02:17:41.984Z,21.76
2017-07-31T02:18:42.003Z,21.73
2017-07-31T02:19:41.697Z,21.77
2017-07-31T02:20:41.701Z,21.83
2017-07-31T02:21:41.401Z,21.82
2017-07-31T02:22:41.700Z,21.75
2017-07-31T02:23:41.696Z,21.88
2017-07-31T02:24:42.004Z,21.8
2017-07-31T02:25:42.019Z,21.82
2017-07-31T02:26:42.007Z,21.73
2017-07-31T02:27:42.050Z,21.79
2017-07-31T02:28:42.019Z,21.66
2017-07-31T02:29:42.022Z,21.7
2017-07-31T02:30:42.020Z,21.66
2017-07-31T02:31:42.022Z,21.66
2017-07-31T02:32:41.743Z,21.67
2017-07-31T02:33:42.040Z,21.76
2017-07-31T02:34:41.751Z,21.82
2017-07-31T02:35:42.044Z,21.77
2017-07-31T02:36:42.051Z,21.67
2017-07-31T02:37:41.748Z,21.62
2017-07-31T02:38:42.058Z,21.67
2017-07-31T02:39:42.056Z,21.6
2017-07-31T02:40:42.058Z,21.64
2017-07-31T02:41:42.062Z,21.6
2017-07-31T02:42:41.761Z,21.52
2017-07-31T02:43:42.069Z,21.52
2017-07-31T02:44:41.794Z,21.67
2017-07-31T02:45:41.771Z,21.61
2017-07-31T02:46:42.388Z,21.62
2017-07-31T02:47:41.784Z,21.54
2017-07-31T02:48:42.085Z,21.6
2017-07-31T02:49:42.088Z,21.6
2017-07-31T02:50:41.789Z,21.54
2017-07-31T02:51:46.300Z,21.57
2017-07-31T02:52:41.797Z,21.52
2017-07-31T02:53:42.094Z,21.48
2017-07-31T02:54:42.104Z,21.52
2017-07-31T02:55:41.808Z,21.54
2017-07-31T02:56:42.109Z,21.57
2017-07-31T02:57:42.128Z,21.61
2017-07-31T02:58:42.123Z,21.57
2017-07-31T02:59:42.121Z,21.55
2017-07-31T03:00:42.121Z,21.55
2017-07-31T03:01:42.128Z,21.6
2017-07-31T03:02:41.827Z,21.55
2017-07-31T03:03:42.132Z,21.61
2017-07-31T03:04:42.139Z,21.54
2017-07-31T03:05:42.141Z,21.6
2017-07-31T03:06:42.139Z,21.54
2017-07-31T03:07:42.144Z,21.52
2017-07-31T03:08:41.854Z,21.55
2017-07-31T03:09:42.153Z,21.51
2017-07-31T03:10:41.854Z,21.5
2017-07-31T03:11:42.159Z,21.48
2017-07-31T03:12:42.159Z,21.46
2017-07-31T03:13:41.867Z,21.43
2017-07-31T03:14:42.166Z,21.4
2017-07-31T03:15:42.171Z,21.4
2017-07-31T03:16:42.187Z,21.22
2017-07-31T03:17:42.178Z,21.14
2017-07-31T03:18:42.188Z,21.15
2017-07-31T03:19:42.182Z,21
2017-07-31T03:20:41.886Z,20.93
2017-07-31T03:21:42.187Z,20.93
2017-07-31T03:22:42.197Z,20.87
2017-07-31T03:23:42.210Z,20.84
2017-07-31T03:24:42.199Z,20.84
2017-07-31T03:25:42.203Z,20.81
2017-07-31T03:26:42.210Z,20.77
2017-07-31T03:27:42.232Z,20.74
2017-07-31T03:28:42.222Z,20.67
2017-07-31T03:29:41.929Z,20.66
2017-07-31T03:30:42.233Z,20.52
2017-07-31T03:31:42.227Z,20.52
2017-07-31T03:32:42.283Z,20.52
2017-07-31T03:33:41.629Z,20.58
2017-07-31T03:34:42.244Z,20.5
2017-07-31T03:35:42.242Z,20.51
2017-07-31T03:36:42.243Z,20.51
2017-07-31T03:37:42.240Z,20.51
2017-07-31T03:38:42.244Z,20.52
2017-07-31T03:39:42.243Z,20.56
2017-07-31T03:40:42.253Z,20.59
2017-07-31T03:41:42.250Z,20.55
2017-07-31T03:42:42.270Z,20.44
2017-07-31T03:43:41.955Z,20.55
2017-07-31T03:44:41.958Z,20.56
2017-07-31T03:45:41.963Z,20.52
2017-07-31T03:46:42.272Z,20.52
2017-07-31T03:47:44.071Z,20.58
2017-07-31T03:48:42.289Z,20.6
2017-07-31T03:49:42.282Z,20.59
2017-07-31T03:50:42.277Z,20.55
2017-07-31T03:51:41.998Z,20.5
2017-07-31T03:52:42.294Z,20.47
2017-07-31T03:53:41.994Z,20.51
2017-07-31T03:54:42.291Z,20.52
2017-07-31T03:55:42.293Z,20.55
2017-07-31T03:56:41.994Z,20.55
2017-07-31T03:57:42.299Z,20.55
2017-07-31T03:58:42.303Z,20.63
2017-07-31T03:59:42.304Z,20.58
2017-07-31T04:00:42.327Z,20.55
2017-07-31T04:01:42.313Z,20.52
2017-07-31T04:02:46.378Z,20.58
2017-07-31T04:03:42.315Z,20.59
2017-07-31T04:04:42.320Z,20.51
2017-07-31T04:05:42.325Z,20.56
2017-07-31T04:06:42.031Z,20.67
2017-07-31T04:07:42.042Z,20.66
2017-07-31T04:08:42.341Z,20.66
2017-07-31T04:09:42.340Z,20.67
2017-07-31T04:10:42.043Z,20.7
2017-07-31T04:11:42.341Z,20.7
2017-07-31T04:12:42.340Z,20.67
2017-07-31T04:13:42.364Z,20.63
2017-07-31T04:14:42.047Z,20.6
2017-07-31T04:15:42.349Z,20.56
2017-07-31T04:16:42.051Z,20.62
2017-07-31T04:17:42.076Z,20.63
2017-07-31T04:18:42.059Z,20.6
2017-07-31T04:19:41.752Z,20.62
2017-07-31T04:20:42.062Z,20.62
2017-07-31T04:21:42.446Z,20.6
2017-07-31T04:22:42.367Z,20.58
2017-07-31T04:23:42.372Z,20.59
2017-07-31T04:24:42.076Z,20.55
2017-07-31T04:25:42.149Z,20.55
2017-07-31T04:26:42.384Z,20.51
2017-07-31T04:27:42.375Z,20.65
2017-07-31T04:28:42.389Z,20.66
2017-07-31T04:29:42.092Z,20.74
2017-07-31T04:30:42.095Z,20.75
2017-07-31T04:31:42.390Z,20.72
2017-07-31T04:32:42.099Z,20.82
2017-07-31T04:33:42.450Z,20.9
2017-07-31T04:34:42.391Z,20.92
2017-07-31T04:35:42.414Z,21.02
2017-07-31T04:36:42.409Z,21.17
2017-07-31T04:37:42.410Z,21.11
2017-07-31T04:38:42.414Z,21.24
2017-07-31T04:39:42.413Z,21.27
2017-07-31T04:40:42.415Z,21.36
2017-07-31T04:41:42.414Z,21.48
2017-07-31T04:42:42.419Z,21.5
2017-07-31T04:43:42.123Z,21.55
2017-07-31T04:44:42.425Z,21.62
2017-07-31T04:45:42.431Z,21.64
2017-07-31T04:46:42.132Z,21.61
2017-07-31T04:47:42.134Z,21.83
2017-07-31T04:48:43.587Z,21.79
2017-07-31T04:49:42.454Z,21.76
2017-07-31T04:50:42.155Z,21.69
2017-07-31T04:51:42.443Z,21.77
2017-07-31T04:52:42.448Z,21.7
2017-07-31T04:53:41.848Z,21.8
2017-07-31T04:54:42.449Z,21.85
2017-07-31T04:55:42.460Z,21.99
2017-07-31T04:56:42.458Z,22.28
2017-07-31T04:57:42.469Z,22.44
2017-07-31T04:58:42.465Z,22.68
2017-07-31T04:59:42.477Z,22.83
2017-07-31T05:00:42.478Z,23.2
2017-07-31T05:01:42.491Z,23.18
2017-07-31T05:02:42.480Z,23.37
2017-07-31T05:03:42.787Z,23.31
2017-07-31T05:04:42.511Z,23.41
2017-07-31T05:05:42.508Z,23.44
2017-07-31T05:06:42.506Z,23.46
2017-07-31T05:07:42.212Z,23.63
2017-07-31T05:08:42.528Z,23.8
2017-07-31T05:09:42.534Z,23.91
2017-07-31T05:10:42.533Z,23.98
2017-07-31T05:11:41.928Z,23.93
2017-07-31T05:12:42.532Z,23.92
2017-07-31T05:13:42.552Z,23.74
2017-07-31T05:14:42.543Z,23.62
2017-07-31T05:15:42.250Z,23.46
2017-07-31T05:16:42.571Z,23.43
2017-07-31T05:17:42.558Z,23.37
2017-07-31T05:18:43.673Z,23.32
2017-07-31T05:19:42.571Z,23.15
2017-07-31T05:20:42.575Z,23.15
2017-07-31T05:21:41.970Z,22.93
2017-07-31T05:22:42.292Z,22.85
2017-07-31T05:23:42.614Z,22.84
2017-07-31T05:24:42.605Z,22.88
2017-07-31T05:25:42.611Z,22.85
2017-07-31T05:26:42.628Z,22.83
2017-07-31T05:27:42.322Z,22.87
2017-07-31T05:28:42.630Z,22.94
2017-07-31T05:29:42.618Z,23
2017-07-31T05:30:42.629Z,22.99
2017-07-31T05:31:42.638Z,23
2017-07-31T05:32:42.646Z,22.87
2017-07-31T05:33:43.080Z,22.98
2017-07-31T05:34:42.650Z,23.23
2017-07-31T05:35:42.653Z,23.46
2017-07-31T05:36:42.651Z,23.66
2017-07-31T05:37:42.674Z,23.8
2017-07-31T05:38:42.669Z,23.96
2017-07-31T05:39:42.377Z,24.13
2017-07-31T05:40:42.685Z,24.33
2017-07-31T05:41:42.679Z,24.51
2017-07-31T05:42:42.682Z,24.8
2017-07-31T05:43:42.679Z,24.98
2017-07-31T05:44:42.685Z,25.08
2017-07-31T05:45:42.703Z,25.13
2017-07-31T05:46:42.093Z,25.07
2017-07-31T05:47:42.706Z,25.07
2017-07-31T05:48:42.770Z,25.08
2017-07-31T05:49:42.723Z,24.96
2017-07-31T05:50:42.717Z,24.86
2017-07-31T05:51:42.735Z,24.7
2017-07-31T05:52:42.738Z,24.53
2017-07-31T05:53:42.743Z,24.35
2017-07-31T05:54:42.466Z,24.29
2017-07-31T05:55:42.758Z,24.16
2017-07-31T05:56:42.754Z,24.14
2017-07-31T05:57:42.753Z,24.1
2017-07-31T05:58:42.765Z,24.02
2017-07-31T05:59:42.788Z,24.05
2017-07-31T06:00:42.767Z,24.08
2017-07-31T06:01:42.785Z,24.11
2017-07-31T06:02:42.770Z,24.05
2017-07-31T06:03:42.547Z,23.95
2017-07-31T06:04:42.497Z,23.91
2017-07-31T06:05:42.803Z,23.93
2017-07-31T06:06:42.801Z,23.84
2017-07-31T06:07:42.533Z,23.86
2017-07-31T06:08:42.820Z,23.8
2017-07-31T06:09:42.818Z,23.81
2017-07-31T06:10:42.820Z,23.69
2017-07-31T06:11:42.827Z,23.71
2017-07-31T06:12:42.828Z,23.65
2017-07-31T06:13:42.548Z,23.63
2017-07-31T06:14:42.848Z,23.63
2017-07-31T06:15:42.850Z,23.65
2017-07-31T06:16:42.547Z,23.61
2017-07-31T06:17:42.868Z,23.76
2017-07-31T06:18:43.211Z,23.77
2017-07-31T06:19:42.871Z,23.92
2017-07-31T06:20:42.867Z,23.95
2017-07-31T06:21:42.870Z,24.11
2017-07-31T06:22:42.870Z,24.26
2017-07-31T06:23:42.586Z,24.43
2017-07-31T06:24:42.577Z,24.63
2017-07-31T06:25:42.583Z,24.95
2017-07-31T06:26:42.895Z,25.38
2017-07-31T06:27:42.901Z,25.77
2017-07-31T06:28:42.900Z,26.06
2017-07-31T06:29:42.899Z,26.23
2017-07-31T06:30:42.616Z,26.29
2017-07-31T06:31:42.918Z,26.22
2017-07-31T06:32:42.917Z,26.26
2017-07-31T06:33:45.227Z,26.15
2017-07-31T06:34:42.626Z,26.03
2017-07-31T06:35:42.943Z,26.09
2017-07-31T06:36:42.951Z,25.99
2017-07-31T06:37:42.953Z,26.02
2017-07-31T06:38:42.955Z,26.03
2017-07-31T06:39:42.656Z,25.85
2017-07-31T06:40:42.967Z,25.63
2017-07-31T06:41:42.980Z,25.6
2017-07-31T06:42:42.980Z,25.75
2017-07-31T06:43:42.982Z,25.93
2017-07-31T06:44:42.988Z,26.07
2017-07-31T06:45:42.993Z,26.43
2017-07-31T06:46:43.002Z,26.96
2017-07-31T06:47:43.008Z,27.4
2017-07-31T06:48:43.026Z,27.85
2017-07-31T06:49:43.028Z,28.33
2017-07-31T06:50:43.024Z,28.85
2017-07-31T06:51:43.029Z,29.2
2017-07-31T06:52:43.042Z,29.45
2017-07-31T06:53:43.055Z,29.72
2017-07-31T06:54:42.757Z,29.82
2017-07-31T06:55:42.772Z,29.94
2017-07-31T06:56:43.073Z,30.15
2017-07-31T06:57:43.073Z,30.31
2017-07-31T06:58:43.099Z,30.28
2017-07-31T06:59:43.093Z,30.28
2017-07-31T07:00:42.799Z,30.47
2017-07-31T07:01:43.108Z,30.63
2017-07-31T07:02:43.134Z,30.87
2017-07-31T07:03:42.820Z,30.99
2017-07-31T07:04:43.183Z,31.21
2017-07-31T07:05:43.145Z,31.42
2017-07-31T07:06:43.150Z,31.31
2017-07-31T07:07:43.157Z,31.21
2017-07-31T07:08:43.168Z,30.99
2017-07-31T07:09:43.179Z,30.9
2017-07-31T07:10:43.198Z,30.48
2017-07-31T07:11:42.899Z,30.27
2017-07-31T07:12:43.206Z,30.3
2017-07-31T07:13:43.216Z,30.27
2017-07-31T07:14:43.241Z,30.15
2017-07-31T07:15:43.228Z,30.13
2017-07-31T07:16:43.236Z,30.34
2017-07-31T07:17:43.244Z,30.43
2017-07-31T07:18:43.249Z,30.46
2017-07-31T07:19:45.380Z,30.47
2017-07-31T07:20:42.968Z,30.47
2017-07-31T07:21:43.292Z,30.63
2017-07-31T07:22:43.283Z,30.92
2017-07-31T07:23:43.044Z,31.24
2017-07-31T07:24:43.358Z,31.52
2017-07-31T07:25:43.316Z,31.71
2017-07-31T07:26:43.338Z,31.96
2017-07-31T07:27:43.357Z,32.22
2017-07-31T07:28:43.350Z,32.33
2017-07-31T07:29:43.353Z,32.48
2017-07-31T07:30:43.380Z,32.59
2017-07-31T07:31:43.378Z,32.64
2017-07-31T07:32:43.376Z,32.86
2017-07-31T07:33:43.414Z,32.95
2017-07-31T07:34:44.745Z,33.02
2017-07-31T07:35:43.403Z,33.12
2017-07-31T07:36:43.415Z,33.02
2017-07-31T07:37:43.418Z,32.73
2017-07-31T07:38:43.437Z,32.48
2017-07-31T07:39:43.439Z,32.22
2017-07-31T07:40:43.451Z,31.77
2017-07-31T07:41:43.458Z,31.46
2017-07-31T07:42:43.167Z,31.07
2017-07-31T07:43:43.172Z,30.65
2017-07-31T07:44:44.291Z,29.87
2017-07-31T07:45:43.499Z,29.61
2017-07-31T07:46:43.510Z,29.24
2017-07-31T07:47:43.517Z,29.24
2017-07-31T07:48:43.522Z,29.41
2017-07-31T07:49:43.538Z,29.72
2017-07-31T07:50:43.544Z,30.13
2017-07-31T07:51:43.252Z,30.44
2017-07-31T07:52:43.566Z,30.51
2017-07-31T07:53:43.263Z,30.39
2017-07-31T07:54:42.977Z,30.63
2017-07-31T07:55:43.285Z,30.91
2017-07-31T07:56:43.585Z,31.33
2017-07-31T07:57:43.602Z,31.77
2017-07-31T07:58:43.305Z,31.85
2017-07-31T07:59:43.616Z,31.99
2017-07-31T08:00:43.623Z,32.04
2017-07-31T08:01:43.630Z,32.18
2017-07-31T08:02:43.649Z,32.31
2017-07-31T08:03:43.647Z,31.99
2017-07-31T08:04:43.660Z,31.77
2017-07-31T08:05:43.677Z,31.37
2017-07-31T08:06:43.378Z,31.58
2017-07-31T08:07:43.696Z,31.94
2017-07-31T08:08:43.736Z,32.37
2017-07-31T08:09:43.742Z,32.56
2017-07-31T08:10:43.711Z,32.8
2017-07-31T08:11:43.421Z,33.15
2017-07-31T08:12:43.432Z,33.28
2017-07-31T08:13:43.734Z,32.83
2017-07-31T08:14:43.750Z,32.38
2017-07-31T08:15:44.565Z,31.87
2017-07-31T08:16:43.760Z,31.28
2017-07-31T08:17:43.771Z,30.62
2017-07-31T08:18:43.484Z,30.27
2017-07-31T08:19:43.801Z,29.88
2017-07-31T08:20:47.051Z,29.73
2017-07-31T08:21:43.815Z,29.71
2017-07-31T08:22:43.520Z,29.71
2017-07-31T08:23:43.828Z,29.54
2017-07-31T08:24:43.833Z,29.38
2017-07-31T08:25:43.553Z,29.22
2017-07-31T08:26:43.856Z,29.22
2017-07-31T08:27:43.558Z,29.1
2017-07-31T08:28:43.571Z,28.96
2017-07-31T08:29:43.874Z,28.88
2017-07-31T08:30:43.882Z,28.85
2017-07-31T08:31:43.894Z,28.79
2017-07-31T08:32:43.920Z,28.72
2017-07-31T08:33:43.921Z,28.72
2017-07-31T08:34:43.916Z,28.7
2017-07-31T08:35:43.922Z,28.67
2017-07-31T08:36:43.932Z,28.56
2017-07-31T08:37:43.639Z,28.41
2017-07-31T08:38:43.651Z,28.45
2017-07-31T08:39:43.957Z,28.47
2017-07-31T08:40:43.993Z,28.41
2017-07-31T08:41:43.999Z,28.29
2017-07-31T08:42:43.990Z,28.38
2017-07-31T08:43:43.672Z,28.27
2017-07-31T08:44:43.994Z,28.22
2017-07-31T08:45:43.698Z,28.22
2017-07-31T08:46:44.004Z,28.19
2017-07-31T08:47:43.995Z,28.2
2017-07-31T08:48:44.002Z,28.2
2017-07-31T08:49:43.414Z,28.3
2017-07-31T08:50:44.018Z,28.2
2017-07-31T08:51:44.022Z,28.15
2017-07-31T08:52:44.073Z,28.19
2017-07-31T08:53:43.746Z,28.29
2017-07-31T08:54:44.101Z,28.26
2017-07-31T08:55:43.443Z,28.23
2017-07-31T08:56:44.080Z,28.27
2017-07-31T08:57:44.074Z,28.25
2017-07-31T08:58:44.089Z,28.27
2017-07-31T08:59:43.769Z,28.25
2017-07-31T09:00:43.476Z,28.2
2017-07-31T09:01:43.783Z,28.22
2017-07-31T09:02:44.093Z,28.29
2017-07-31T09:03:44.104Z,28.23
2017-07-31T09:04:44.105Z,28.32
2017-07-31T09:05:44.109Z,28.12
2017-07-31T09:06:43.514Z,28.22
2017-07-31T09:07:43.820Z,28.17
2017-07-31T09:08:43.824Z,28.22
2017-07-31T09:09:43.843Z,28.19
2017-07-31T09:10:44.147Z,28.23
2017-07-31T09:11:43.868Z,28.12
2017-07-31T09:12:44.166Z,28.07
2017-07-31T09:13:43.866Z,28.1
2017-07-31T09:14:43.872Z,28.23
2017-07-31T09:15:43.873Z,28.26
2017-07-31T09:16:43.876Z,28.41
2017-07-31T09:17:43.888Z,28.47
2017-07-31T09:18:43.901Z,28.7
2017-07-31T09:19:44.207Z,28.82
2017-07-31T09:20:44.194Z,28.93
2017-07-31T09:21:47.566Z,29.07
2017-07-31T09:22:44.213Z,29.1
2017-07-31T09:23:43.919Z,29.17
2017-07-31T09:24:43.926Z,29.29
2017-07-31T09:25:44.238Z,29.16
2017-07-31T09:26:44.251Z,29.23
2017-07-31T09:27:44.249Z,29.34
2017-07-31T09:28:43.956Z,29.49
2017-07-31T09:29:43.969Z,29.57
2017-07-31T09:30:44.270Z,29.61
2017-07-31T09:31:43.679Z,29.73
2017-07-31T09:32:43.979Z,29.73
2017-07-31T09:33:44.001Z,29.84
2017-07-31T09:34:44.001Z,29.88
2017-07-31T09:35:43.714Z,29.86
2017-07-31T09:36:44.366Z,29.87
2017-07-31T09:37:44.018Z,29.79
2017-07-31T09:38:44.019Z,29.68
2017-07-31T09:39:44.329Z,29.75
2017-07-31T09:40:44.041Z,29.73
2017-07-31T09:41:44.342Z,29.72
2017-07-31T09:42:44.044Z,29.81
2017-07-31T09:43:44.066Z,29.87
2017-07-31T09:44:44.376Z,30
2017-07-31T09:45:44.068Z,30.16
2017-07-31T09:46:44.379Z,30.34
2017-07-31T09:47:43.783Z,30.4
2017-07-31T09:48:44.083Z,30.47
2017-07-31T09:49:44.398Z,30.54
2017-07-31T09:50:44.402Z,30.62
2017-07-31T09:51:45.665Z,30.54
2017-07-31T09:52:44.416Z,30.44
2017-07-31T09:53:44.425Z,30.54
2017-07-31T09:54:44.434Z,30.48
2017-07-31T09:55:44.439Z,30.62
2017-07-31T09:56:44.447Z,30.62
2017-07-31T09:57:44.458Z,30.62
2017-07-31T09:58:44.161Z,30.73
2017-07-31T09:59:44.479Z,30.77
2017-07-31T10:00:44.175Z,30.84
2017-07-31T10:01:44.501Z,30.69
2017-07-31T10:02:44.189Z,30.73
2017-07-31T10:03:44.196Z,30.72
2017-07-31T10:04:44.508Z,30.63
2017-07-31T10:05:44.525Z,30.61
2017-07-31T10:06:44.222Z,30.63
2017-07-31T10:07:44.526Z,30.5
2017-07-31T10:08:44.537Z,30.28
2017-07-31T10:09:44.261Z,30.16
2017-07-31T10:10:44.561Z,30.18
2017-07-31T10:11:44.263Z,30.13
2017-07-31T10:12:44.567Z,30.12
2017-07-31T10:13:44.267Z,30.09
2017-07-31T10:14:44.286Z,29.98
2017-07-31T10:15:44.283Z,30.03
2017-07-31T10:16:44.596Z,30.05
2017-07-31T10:17:44.297Z,30.05
2017-07-31T10:18:44.606Z,30.09
2017-07-31T10:19:44.629Z,30.24
2017-07-31T10:20:44.626Z,30.31
2017-07-31T10:21:44.628Z,30.37
2017-07-31T10:22:46.595Z,30.44
2017-07-31T10:23:44.663Z,30.44
2017-07-31T10:24:44.353Z,30.4
2017-07-31T10:25:44.665Z,30.55
2017-07-31T10:26:44.671Z,30.59
2017-07-31T10:27:44.673Z,30.7
2017-07-31T10:28:44.684Z,30.9
2017-07-31T10:29:44.690Z,30.88
2017-07-31T10:30:44.395Z,30.96
2017-07-31T10:31:44.727Z,30.92
2017-07-31T10:32:44.729Z,30.9
2017-07-31T10:33:44.727Z,30.78
2017-07-31T10:34:44.729Z,30.59
2017-07-31T10:35:44.140Z,30.5
2017-07-31T10:36:44.746Z,30.48
2017-07-31T10:37:45.847Z,30.4
2017-07-31T10:38:44.750Z,30.32
2017-07-31T10:39:44.766Z,30.34
2017-07-31T10:40:44.471Z,30.25
2017-07-31T10:41:44.801Z,30.25
2017-07-31T10:42:44.784Z,30.21
2017-07-31T10:43:44.790Z,30.32
2017-07-31T10:44:44.502Z,30.28
2017-07-31T10:45:44.807Z,30.34
2017-07-31T10:46:44.512Z,30.43
2017-07-31T10:47:44.235Z,30.39
2017-07-31T10:48:44.826Z,30.34
2017-07-31T10:49:44.832Z,30.35
2017-07-31T10:50:44.238Z,30.34
2017-07-31T10:51:44.846Z,30.37
2017-07-31T10:52:44.869Z,30.43
2017-07-31T10:53:44.904Z,30.46
2017-07-31T10:54:44.869Z,30.51
2017-07-31T10:55:44.576Z,30.55
2017-07-31T10:56:44.892Z,30.53
2017-07-31T10:57:44.586Z,30.53
2017-07-31T10:58:44.897Z,30.51
2017-07-31T10:59:44.906Z,30.61
2017-07-31T11:00:44.622Z,30.73
2017-07-31T11:01:44.627Z,30.77
2017-07-31T11:02:44.626Z,30.75
2017-07-31T11:03:44.943Z,30.75
2017-07-31T11:04:44.946Z,30.75
2017-07-31T11:05:44.947Z,30.62
2017-07-31T11:06:44.975Z,30.55
2017-07-31T11:07:44.965Z,30.48
2017-07-31T11:08:45.018Z,30.5
2017-07-31T11:09:44.685Z,30.46
2017-07-31T11:10:44.685Z,30.4
2017-07-31T11:11:44.989Z,30.35
2017-07-31T11:12:45.006Z,30.43
2017-07-31T11:13:45.005Z,30.39
2017-07-31T11:14:44.704Z,30.35
2017-07-31T11:15:45.019Z,30.46
2017-07-31T11:16:44.726Z,30.53
2017-07-31T11:17:44.747Z,30.57
2017-07-31T11:18:45.045Z,30.68
2017-07-31T11:19:45.044Z,30.81
2017-07-31T11:20:44.747Z,30.81
2017-07-31T11:21:45.068Z,30.75
2017-07-31T11:22:44.766Z,30.61
2017-07-31T11:23:45.820Z,30.61
2017-07-31T11:24:44.774Z,30.7
2017-07-31T11:25:44.786Z,30.84
2017-07-31T11:26:45.102Z,30.81
2017-07-31T11:27:44.795Z,30.91
2017-07-31T11:28:44.808Z,30.92
2017-07-31T11:29:45.113Z,31.02
2017-07-31T11:30:44.817Z,31.06
2017-07-31T11:31:45.126Z,31.06
2017-07-31T11:32:45.136Z,30.96
2017-07-31T11:33:45.142Z,30.85
2017-07-31T11:34:45.163Z,30.72
2017-07-31T11:35:45.157Z,30.81
2017-07-31T11:36:45.165Z,30.77
2017-07-31T11:37:45.182Z,30.91
2017-07-31T11:38:46.183Z,30.87
2017-07-31T11:39:44.883Z,30.92
2017-07-31T11:40:44.898Z,31.1
2017-07-31T11:41:44.903Z,31.05
2017-07-31T11:42:45.225Z,31.03
2017-07-31T11:43:44.911Z,30.88
2017-07-31T11:44:45.230Z,30.87
2017-07-31T11:45:45.236Z,30.72
2017-07-31T11:46:45.248Z,30.57
2017-07-31T11:47:44.945Z,30.53
2017-07-31T11:48:45.251Z,30.5
2017-07-31T11:49:45.272Z,30.5
2017-07-31T11:50:45.261Z,30.47
2017-07-31T11:51:45.280Z,30.53
2017-07-31T11:52:45.282Z,30.61
2017-07-31T11:53:45.482Z,30.63
2017-07-31T11:54:45.288Z,30.62
2017-07-31T11:55:44.997Z,30.78
2017-07-31T11:56:45.308Z,30.73
2017-07-31T11:57:45.008Z,30.77
2017-07-31T11:58:45.020Z,30.83
2017-07-31T11:59:45.038Z,30.96
2017-07-31T12:00:45.332Z,31.05
2017-07-31T12:01:45.338Z,31.05
2017-07-31T12:02:45.356Z,31.05
2017-07-31T12:03:45.087Z,31.1
2017-07-31T12:04:45.060Z,31.05
2017-07-31T12:05:45.068Z,31.05
2017-07-31T12:06:45.377Z,31.06
2017-07-31T12:07:44.785Z,31
2017-07-31T12:08:45.690Z,30.87
2017-07-31T12:09:45.403Z,30.88
2017-07-31T12:10:45.405Z,30.85
2017-07-31T12:11:45.420Z,30.88
2017-07-31T12:12:44.817Z,30.73
2017-07-31T12:13:45.427Z,30.75
2017-07-31T12:14:45.433Z,30.88
2017-07-31T12:15:45.441Z,31
2017-07-31T12:16:45.467Z,31.15
2017-07-31T12:17:45.454Z,31.42
2017-07-31T12:18:45.155Z,31.49
2017-07-31T12:19:45.471Z,31.66
2017-07-31T12:20:45.009Z,31.77
2017-07-31T12:21:45.489Z,31.85
2017-07-31T12:22:45.499Z,31.74
2017-07-31T12:23:45.263Z,31.89
2017-07-31T12:24:45.214Z,31.97
2017-07-31T12:25:45.509Z,31.92
2017-07-31T12:26:45.527Z,31.96
2017-07-31T12:27:45.538Z,32.08
2017-07-31T12:28:45.237Z,32.19
2017-07-31T12:29:45.258Z,32.33
2017-07-31T12:30:45.255Z,32.45
2017-07-31T12:31:45.275Z,32.56
2017-07-31T12:32:45.571Z,32.63
2017-07-31T12:33:45.283Z,32.74
2017-07-31T12:34:45.592Z,32.75
2017-07-31T12:35:45.592Z,32.58
2017-07-31T12:36:45.601Z,32.49
2017-07-31T12:37:45.622Z,32.31
2017-07-31T12:38:45.677Z,32.26
2017-07-31T12:39:45.320Z,32.04
2017-07-31T12:40:45.646Z,32.08
2017-07-31T12:41:45.340Z,32.11
2017-07-31T12:42:45.644Z,31.92
2017-07-31T12:43:45.352Z,31.65
2017-07-31T12:44:45.663Z,31.65
2017-07-31T12:45:45.672Z,31.65
2017-07-31T12:46:45.379Z,31.7
2017-07-31T12:47:45.688Z,31.65
2017-07-31T12:48:45.394Z,31.7
2017-07-31T12:49:45.701Z,31.69
2017-07-31T12:50:45.714Z,31.65
2017-07-31T12:51:45.714Z,31.62
2017-07-31T12:52:45.727Z,31.61
2017-07-31T12:53:48.533Z,31.62
2017-07-31T12:54:45.742Z,31.66
2017-07-31T12:55:45.747Z,31.76
2017-07-31T12:56:45.754Z,31.69